Time;durP1;ratioP1;P1;durP2;ratioP2;P2;SDS_P1;SDS_P2;PMS_P1;PMS_P2;Temp;Humidity;BMP_temperature;BMP_pressure;BME280_temperature;BME280_humidity;BME280_pressure;Samples;Min_cycle;Max_cycle;Signal;HPM_P1;HPM_P2
2021/05/28 00:02:00;;;;;;;4.73;4.07;;;11.30;99.90;;;;;;5024035;28;20671;-67
2021/05/28 00:04:26;;;;;;;4.10;3.80;;;11.30;99.90;;;;;;5016967;28;20795;-66
2021/05/28 00:06:54;;;;;;;3.80;3.40;;;11.30;99.90;;;;;;5026400;28;20652;-66
2021/05/28 00:09:19;;;;;;;5.53;5.03;;;11.30;99.90;;;;;;5035114;28;20301;-67
2021/05/28 00:11:45;;;;;;;4.80;4.40;;;11.30;99.90;;;;;;5022639;28;20668;-66
2021/05/28 00:14:11;;;;;;;4.37;4.07;;;11.30;99.90;;;;;;5013458;28;20345;-66
2021/05/28 00:16:37;;;;;;;5.00;4.60;;;11.30;99.90;;;;;;5007600;28;20744;-66
2021/05/28 00:19:03;;;;;;;5.00;4.60;;;11.30;99.90;;;;;;5017038;28;21483;-67
2021/05/28 00:21:29;;;;;;;5.53;4.80;;;11.40;99.90;;;;;;5002070;28;20765;-67
2021/05/28 00:23:55;;;;;;;4.63;4.23;;;11.30;99.90;;;;;;5019827;28;20651;-66
2021/05/28 00:26:20;;;;;;;5.70;5.10;;;11.30;99.90;;;;;;5019125;28;20218;-67
2021/05/28 00:28:49;;;;;;;5.00;4.60;;;11.30;99.90;;;;;;5010799;28;20209;-66
2021/05/28 00:31:19;;;;;;;5.90;5.10;;;11.30;99.90;;;;;;5011435;28;20242;-67
2021/05/28 00:33:45;;;;;;;5.10;4.70;;;11.30;99.90;;;;;;5028669;28;20647;-67
2021/05/28 00:36:10;;;;;;;5.60;5.10;;;11.30;99.90;;;;;;5007811;28;20650;-66
2021/05/28 00:38:36;;;;;;;5.70;5.20;;;11.30;99.90;;;;;;5009041;28;21242;-67
2021/05/28 00:41:03;;;;;;;6.00;5.33;;;11.30;99.90;;;;;;5021836;28;20188;-68
2021/05/28 00:43:31;;;;;;;6.07;5.53;;;11.30;99.90;;;;;;5011187;28;20654;-67
2021/05/28 00:45:56;;;;;;;6.33;5.43;;;11.30;99.90;;;;;;5021875;28;20622;-67
2021/05/28 00:48:22;;;;;;;8.47;5.40;;;11.20;99.90;;;;;;5022538;28;20662;-67
2021/05/28 00:50:48;;;;;;;6.03;5.53;;;11.30;99.90;;;;;;5021680;28;21693;-66
2021/05/28 00:53:14;;;;;;;6.70;6.10;;;11.20;99.90;;;;;;5008145;28;20291;-68
2021/05/28 00:55:40;;;;;;;6.13;5.63;;;11.20;99.90;;;;;;5008464;28;20211;-67
2021/05/28 00:58:06;;;;;;;6.67;5.67;;;11.20;99.90;;;;;;5024256;28;21051;-67
2021/05/28 01:00:33;;;;;;;6.60;5.23;;;11.20;99.90;;;;;;5008757;28;21169;-66
2021/05/28 01:02:58;;;;;;;6.93;5.77;;;11.20;99.90;;;;;;5003819;28;20626;-66
2021/05/28 01:05:24;;;;;;;6.77;6.07;;;11.20;99.90;;;;;;5014680;28;20713;-67
2021/05/28 01:07:50;;;;;;;6.50;5.93;;;11.10;99.90;;;;;;5030236;28;20632;-67
2021/05/28 01:10:16;;;;;;;6.13;5.53;;;11.10;99.90;;;;;;5024678;28;20203;-67
2021/05/28 01:12:44;;;;;;;6.30;5.73;;;11.00;99.90;;;;;;5018198;28;20212;-66
2021/05/28 01:15:10;;;;;;;6.37;5.77;;;11.00;99.90;;;;;;5025145;28;20674;-67
2021/05/28 01:17:36;;;;;;;7.23;6.40;;;10.90;99.90;;;;;;5013049;28;21316;-67
2021/05/28 01:20:05;;;;;;;8.83;6.30;;;10.90;99.90;;;;;;5029924;28;20640;-67
2021/05/28 01:22:30;;;;;;;8.20;6.60;;;10.90;99.90;;;;;;5029052;28;21208;-67
2021/05/28 01:25:00;;;;;;;7.90;7.10;;;10.90;99.90;;;;;;5014875;28;20847;-66
2021/05/28 01:27:27;;;;;;;8.80;7.90;;;11.00;99.90;;;;;;5031458;28;20214;-67
2021/05/28 01:29:55;;;;;;;11.10;7.10;;;11.00;99.90;;;;;;5030507;28;20670;-66
2021/05/28 01:32:21;;;;;;;7.90;7.10;;;10.90;99.90;;;;;;5012629;28;20669;-67
2021/05/28 01:34:51;;;;;;;11.10;7.57;;;10.90;99.90;;;;;;5028979;28;20985;-67
2021/05/28 01:37:17;;;;;;;9.63;8.17;;;10.90;99.90;;;;;;5027744;28;20680;-67
2021/05/28 01:39:53;;;;;;;8.57;7.70;;;10.90;99.90;;;;;;5009266;28;20737;-67
2021/05/28 01:42:21;;;;;;;8.93;7.30;;;10.90;99.90;;;;;;5022986;28;20996;-67
2021/05/28 01:44:47;;;;;;;11.60;9.00;;;10.90;99.90;;;;;;5029696;28;20666;-67
2021/05/28 01:47:15;;;;;;;8.67;7.87;;;10.90;99.90;;;;;;5028641;28;20738;-67
2021/05/28 01:49:43;;;;;;;8.93;8.03;;;10.80;99.90;;;;;;5030557;28;20208;-67
2021/05/28 01:52:09;;;;;;;7.63;6.90;;;10.70;99.90;;;;;;5010204;28;20651;-67
2021/05/28 01:54:39;;;;;;;10.00;7.20;;;10.70;99.90;;;;;;5011334;28;20630;-67
2021/05/28 01:57:06;;;;;;;8.93;8.03;;;10.60;99.90;;;;;;5027429;28;20606;-67
2021/05/28 01:59:31;;;;;;;8.37;7.57;;;10.60;99.90;;;;;;5022967;28;20651;-67
2021/05/28 02:01:57;;;;;;;7.53;6.80;;;10.70;99.90;;;;;;5028850;28;20985;-67
2021/05/28 02:04:23;;;;;;;10.30;7.23;;;10.70;99.90;;;;;;5022689;28;20281;-67
2021/05/28 02:06:50;;;;;;;7.67;7.03;;;10.60;99.90;;;;;;5026508;28;20727;-67
2021/05/28 02:09:16;;;;;;;8.10;7.37;;;10.70;99.90;;;;;;5027587;28;20764;-67
2021/05/28 02:11:42;;;;;;;8.93;7.77;;;10.60;99.90;;;;;;5009800;28;20626;-67
2021/05/28 02:14:07;;;;;;;8.93;7.57;;;10.70;99.90;;;;;;5027520;28;20637;-67
2021/05/28 02:16:33;;;;;;;9.70;7.43;;;10.60;99.90;;;;;;5004551;28;20291;-67
2021/05/28 02:19:00;;;;;;;7.60;6.80;;;10.70;99.90;;;;;;5024132;28;20242;-66
2021/05/28 02:21:27;;;;;;;10.37;7.10;;;10.50;99.90;;;;;;5025833;28;20611;-67
2021/05/28 02:23:55;;;;;;;13.17;8.30;;;10.50;99.90;;;;;;5024585;28;21785;-67
2021/05/28 02:26:21;;;;;;;8.77;7.00;;;10.40;99.90;;;;;;5025970;28;20660;-67
2021/05/28 02:28:47;;;;;;;9.60;6.60;;;10.50;99.90;;;;;;5026481;28;20661;-67
2021/05/28 02:31:13;;;;;;;7.80;6.93;;;10.50;99.90;;;;;;5010773;28;21745;-67
2021/05/28 02:33:41;;;;;;;8.23;6.73;;;10.40;99.90;;;;;;5011164;28;20239;-67
2021/05/28 02:36:07;;;;;;;8.27;7.20;;;10.30;99.90;;;;;;5024633;28;20188;-69
2021/05/28 02:38:33;;;;;;;7.70;7.00;;;10.30;99.90;;;;;;5020894;28;20662;-67
2021/05/28 02:41:00;;;;;;;8.67;7.40;;;10.20;99.90;;;;;;5026784;28;20684;-67
2021/05/28 02:43:26;;;;;;;10.67;7.00;;;10.20;99.90;;;;;;5008852;28;20643;-67
2021/05/28 02:45:52;;;;;;;10.93;7.87;;;10.30;99.90;;;;;;5027093;28;20628;-66
2021/05/28 02:48:19;;;;;;;9.80;7.50;;;10.20;99.90;;;;;;5006062;28;20276;-66
2021/05/28 02:50:48;;;;;;;13.00;7.40;;;10.10;99.90;;;;;;5022455;28;20204;-67
2021/05/28 02:53:16;;;;;;;10.43;7.17;;;10.10;99.90;;;;;;5020582;28;21517;-67
2021/05/28 02:55:45;;;;;;;8.63;7.83;;;10.20;99.90;;;;;;5004862;28;20718;-66
2021/05/28 02:58:11;;;;;;;10.47;7.37;;;10.20;99.90;;;;;;5023611;28;20682;-67
2021/05/28 03:00:37;;;;;;;8.27;7.40;;;10.20;99.90;;;;;;5026302;28;21022;-67
2021/05/28 03:03:06;;;;;;;8.80;7.70;;;10.10;99.90;;;;;;5028304;28;20696;-67
2021/05/28 03:05:33;;;;;;;8.60;7.67;;;10.30;99.90;;;;;;5021905;28;21566;-66
2021/05/28 03:08:01;;;;;;;9.70;8.00;;;10.20;99.90;;;;;;5008882;28;20611;-66
2021/05/28 03:10:27;;;;;;;13.20;7.50;;;10.10;99.90;;;;;;5023353;28;20666;-66
2021/05/28 03:12:53;;;;;;;9.30;8.40;;;10.10;99.90;;;;;;5022434;28;21256;-66
2021/05/28 03:15:18;;;;;;;10.53;7.47;;;10.20;99.90;;;;;;5026114;28;20261;-67
2021/05/28 03:17:45;;;;;;;10.93;8.17;;;10.20;99.90;;;;;;5012108;28;20191;-66
2021/05/28 03:20:22;;;;;;;8.77;7.30;;;10.20;99.90;;;;;;5007852;28;20246;-67
2021/05/28 03:22:48;;;;;;;9.00;7.57;;;10.20;99.90;;;;;;5024700;28;20619;-67
2021/05/28 03:25:14;;;;;;;9.00;8.10;;;10.10;99.90;;;;;;5020214;28;20620;-67
2021/05/28 03:27:41;;;;;;;9.77;8.10;;;10.20;99.90;;;;;;5005125;28;21698;-66
2021/05/28 03:30:13;;;;;;;7.77;7.00;;;10.10;99.90;;;;;;5009030;28;20654;-66
2021/05/28 03:32:38;;;;;;;9.17;8.10;;;10.10;99.90;;;;;;5023148;28;20686;-66
2021/05/28 03:35:07;;;;;;;9.00;8.20;;;10.10;99.90;;;;;;5024690;28;20766;-66
2021/05/28 03:37:33;;;;;;;8.47;7.27;;;10.10;99.90;;;;;;5023363;28;20608;-67
2021/05/28 03:40:00;;;;;;;8.03;7.27;;;10.10;99.90;;;;;;5024090;28;20682;-67
2021/05/28 03:42:26;;;;;;;9.37;7.40;;;10.20;99.90;;;;;;5028140;28;20665;-67
2021/05/28 03:44:52;;;;;;;7.73;7.00;;;10.20;99.90;;;;;;5008254;28;21241;-68
2021/05/28 03:47:20;;;;;;;10.10;7.53;;;10.30;99.90;;;;;;5011411;28;20189;-67
2021/05/28 03:49:46;;;;;;;9.20;6.73;;;10.30;99.90;;;;;;5027678;28;20208;-66
2021/05/28 03:52:12;;;;;;;9.07;7.17;;;10.30;99.90;;;;;;5026268;28;20711;-67
2021/05/28 03:54:40;;;;;;;7.00;6.40;;;10.20;99.90;;;;;;5023740;28;20665;-67
2021/05/28 03:57:06;;;;;;;7.40;6.60;;;10.30;99.90;;;;;;5023831;28;20352;-67
2021/05/28 03:59:33;;;;;;;7.93;7.13;;;10.30;99.90;;;;;;5146866;23;20705;-68
2021/05/28 04:01:58;;;;;;;7.53;6.73;;;10.30;99.90;;;;;;5048519;28;20747;-70
2021/05/28 04:04:24;;;;;;;8.60;7.53;;;10.40;99.90;;;;;;5049476;28;21174;-69
2021/05/28 04:06:50;;;;;;;7.60;6.80;;;10.30;99.90;;;;;;5045589;28;20184;-70
2021/05/28 04:09:15;;;;;;;7.53;6.80;;;10.30;99.90;;;;;;5043168;28;20348;-69
2021/05/28 04:11:41;;;;;;;10.00;7.23;;;10.20;99.90;;;;;;5042932;28;20294;-68
2021/05/28 04:14:07;;;;;;;7.53;6.77;;;10.10;99.90;;;;;;5046077;28;20223;-69
2021/05/28 04:16:34;;;;;;;8.17;6.93;;;10.20;99.90;;;;;;5044261;28;20187;-69
2021/05/28 04:19:00;;;;;;;7.63;6.73;;;10.10;99.90;;;;;;5041972;28;20280;-68
2021/05/28 04:21:28;;;;;;;7.90;7.20;;;10.20;99.90;;;;;;5048674;28;20613;-69
2021/05/28 04:23:53;;;;;;;7.37;6.67;;;10.10;99.90;;;;;;5042555;28;20222;-69
2021/05/28 04:26:19;;;;;;;8.00;7.20;;;10.10;99.90;;;;;;5044856;28;20645;-68
2021/05/28 04:28:47;;;;;;;8.10;6.60;;;10.10;99.90;;;;;;5047112;28;20597;-68
2021/05/28 04:31:12;;;;;;;7.93;6.87;;;10.10;99.90;;;;;;5045284;28;20211;-66
2021/05/28 04:33:38;;;;;;;7.63;6.83;;;10.20;99.90;;;;;;5045792;28;21204;-68
2021/05/28 04:36:04;;;;;;;9.60;8.30;;;10.20;99.90;;;;;;5044538;28;20610;-69
2021/05/28 04:38:30;;;;;;;9.20;7.37;;;10.30;99.90;;;;;;5049305;28;20208;-68
2021/05/28 04:40:55;;;;;;;8.23;7.20;;;10.20;99.90;;;;;;5039824;28;20629;-69
2021/05/28 04:43:21;;;;;;;13.77;7.93;;;10.20;99.90;;;;;;5047486;28;20634;-70
2021/05/28 04:45:47;;;;;;;7.60;6.90;;;10.30;99.90;;;;;;5041275;28;20200;-69
2021/05/28 04:48:12;;;;;;;7.47;6.70;;;10.30;99.90;;;;;;5045196;28;20214;-68
2021/05/28 04:50:38;;;;;;;8.40;7.60;;;10.30;99.90;;;;;;5039732;28;20660;-69
2021/05/28 04:53:06;;;;;;;7.33;6.63;;;10.40;99.90;;;;;;5037895;28;21058;-70
2021/05/28 04:55:32;;;;;;;12.00;8.13;;;10.40;99.90;;;;;;5050283;28;20218;-69
2021/05/28 04:57:59;;;;;;;9.87;7.30;;;10.40;99.90;;;;;;5045451;28;21165;-69
2021/05/28 05:00:25;;;;;;;8.70;7.53;;;10.40;99.90;;;;;;5048137;28;20685;-69
2021/05/28 05:02:51;;;;;;;7.93;6.70;;;10.50;99.90;;;;;;5042241;28;20649;-69
2021/05/28 05:05:17;;;;;;;10.93;7.03;;;10.50;99.90;;;;;;5044909;28;20613;-69
2021/05/28 05:07:43;;;;;;;8.80;7.30;;;10.50;99.90;;;;;;5053089;28;20621;-69
2021/05/28 05:10:10;;;;;;;8.80;7.30;;;10.50;99.90;;;;;;5050586;28;20667;-70
2021/05/28 05:12:37;;;;;;;8.07;7.27;;;10.50;99.90;;;;;;5039349;28;20231;-69
2021/05/28 05:15:03;;;;;;;8.80;7.20;;;10.60;99.90;;;;;;5034514;28;21094;-70
2021/05/28 05:17:29;;;;;;;8.63;7.37;;;10.60;99.90;;;;;;5047525;28;21244;-69
2021/05/28 05:19:54;;;;;;;11.33;7.93;;;10.60;99.90;;;;;;5047222;28;20638;-70
2021/05/28 05:22:20;;;;;;;9.27;8.37;;;10.60;99.90;;;;;;5046160;28;20249;-69
2021/05/28 05:24:45;;;;;;;11.73;8.80;;;10.70;99.90;;;;;;5049107;28;20247;-69
2021/05/28 05:27:13;;;;;;;14.17;10.30;;;10.70;99.90;;;;;;5044407;28;20192;-70
2021/05/28 05:29:39;;;;;;;11.60;10.40;;;10.80;99.90;;;;;;5044884;28;20277;-70
2021/05/28 05:32:05;;;;;;;16.33;11.43;;;10.80;99.90;;;;;;5056900;28;20649;-70
2021/05/28 05:34:31;;;;;;;13.63;12.23;;;10.80;99.90;;;;;;5045965;28;20243;-70
2021/05/28 05:37:00;;;;;;;12.87;11.43;;;10.90;99.90;;;;;;5048779;28;20614;-69
2021/05/28 05:39:26;;;;;;;14.93;12.90;;;11.00;99.90;;;;;;5064717;28;20641;-70
2021/05/28 05:41:51;;;;;;;15.60;12.40;;;11.00;99.90;;;;;;5053604;28;20613;-70
2021/05/28 05:44:17;;;;;;;15.50;11.50;;;11.00;99.90;;;;;;5045253;28;20763;-70
2021/05/28 05:46:45;;;;;;;12.60;11.10;;;11.10;99.90;;;;;;5047805;28;20209;-70
2021/05/28 05:49:10;;;;;;;12.37;11.07;;;11.10;99.90;;;;;;5055904;28;20250;-67
2021/05/28 05:51:36;;;;;;;11.77;10.20;;;11.00;99.90;;;;;;5052658;28;20717;-68
2021/05/28 05:54:01;;;;;;;11.80;10.07;;;11.10;99.90;;;;;;5056795;28;20285;-67
2021/05/28 05:56:27;;;;;;;12.33;10.50;;;11.10;99.90;;;;;;5053960;28;20211;-67
2021/05/28 05:58:53;;;;;;;12.40;10.00;;;11.10;99.90;;;;;;5059256;28;20236;-68
2021/05/28 06:01:19;;;;;;;11.40;10.20;;;11.10;99.90;;;;;;5062207;28;20207;-68
2021/05/28 06:03:47;;;;;;;10.80;9.70;;;11.20;99.90;;;;;;5040880;28;20530;-68
2021/05/28 06:06:15;;;;;;;12.03;10.80;;;11.20;99.90;;;;;;5036623;28;20617;-68
2021/05/28 06:08:40;;;;;;;11.40;10.30;;;11.20;99.90;;;;;;5050016;28;21240;-67
2021/05/28 06:11:06;;;;;;;12.10;10.83;;;11.20;99.90;;;;;;5063342;28;20636;-68
2021/05/28 06:13:32;;;;;;;13.03;11.83;;;11.20;99.90;;;;;;5058040;28;20227;-68
2021/05/28 06:15:59;;;;;;;13.00;11.77;;;11.20;99.90;;;;;;5065772;28;20268;-68
2021/05/28 06:18:25;;;;;;;13.43;12.00;;;11.20;99.90;;;;;;5085555;28;20211;-68
2021/05/28 06:20:51;;;;;;;9.90;8.97;;;11.20;99.90;;;;;;5069439;28;20632;-68
2021/05/28 06:23:16;;;;;;;11.67;10.47;;;11.30;99.90;;;;;;5065433;28;20223;-68
2021/05/28 06:25:44;;;;;;;9.50;8.60;;;11.30;99.90;;;;;;5068688;28;20646;-68
2021/05/28 06:28:11;;;;;;;9.60;8.70;;;11.30;99.90;;;;;;5070780;28;20194;-68
2021/05/28 06:30:37;;;;;;;9.97;8.97;;;11.30;99.90;;;;;;5066304;28;20633;-68
2021/05/28 06:33:05;;;;;;;9.43;8.53;;;11.30;99.90;;;;;;5062579;28;21100;-67
2021/05/28 06:35:31;;;;;;;10.40;9.00;;;11.10;99.90;;;;;;5055369;28;20632;-69
2021/05/28 06:37:57;;;;;;;9.33;8.27;;;11.40;99.90;;;;;;5050952;28;21188;-68
2021/05/28 06:40:23;;;;;;;9.50;8.60;;;11.40;99.90;;;;;;5054091;28;20660;-68
2021/05/28 06:42:48;;;;;;;7.97;7.17;;;11.40;99.90;;;;;;5073104;28;20198;-68
2021/05/28 06:45:16;;;;;;;8.37;7.57;;;11.40;99.90;;;;;;5060963;28;20557;-68
2021/05/28 06:47:42;;;;;;;9.30;8.40;;;11.40;99.90;;;;;;5053671;28;20195;-68
2021/05/28 06:50:09;;;;;;;13.00;8.23;;;11.40;99.90;;;;;;5056771;28;20653;-68
2021/05/28 06:52:34;;;;;;;9.80;8.43;;;11.40;99.90;;;;;;5053479;28;20215;-68
2021/05/28 06:55:00;;;;;;;10.77;8.60;;;11.40;99.90;;;;;;5059011;28;20644;-70
2021/05/28 06:57:25;;;;;;;10.10;8.53;;;11.40;99.90;;;;;;5060332;28;20184;-70
2021/05/28 06:59:51;;;;;;;13.30;8.80;;;11.40;99.90;;;;;;5056854;28;20219;-70
2021/05/28 07:02:16;;;;;;;10.00;8.30;;;11.40;99.90;;;;;;5068376;28;20198;-70
2021/05/28 07:04:42;;;;;;;10.13;9.07;;;11.40;99.90;;;;;;5066125;28;20578;-70
2021/05/28 07:07:08;;;;;;;9.67;8.63;;;11.50;99.90;;;;;;5067771;28;20208;-68
2021/05/28 07:09:33;;;;;;;13.50;9.47;;;11.50;99.90;;;;;;5065335;28;20215;-67
2021/05/28 07:11:59;;;;;;;12.03;10.30;;;11.50;99.90;;;;;;5059116;28;20194;-70
2021/05/28 07:14:24;;;;;;;14.27;10.83;;;11.50;99.90;;;;;;5059100;28;20594;-70
2021/05/28 07:16:52;;;;;;;13.40;11.47;;;11.40;99.90;;;;;;5056052;28;20190;-70
2021/05/28 07:19:18;;;;;;;15.17;12.30;;;11.40;99.90;;;;;;5057568;28;20211;-70
2021/05/28 07:21:43;;;;;;;11.40;10.20;;;11.40;99.90;;;;;;5044789;28;21693;-69
2021/05/28 07:24:09;;;;;;;17.00;11.63;;;11.40;99.90;;;;;;5058577;28;20211;-69
2021/05/28 07:26:35;;;;;;;12.57;10.07;;;11.40;99.90;;;;;;5053419;28;20567;-68
2021/05/28 07:29:00;;;;;;;11.77;10.47;;;11.40;99.90;;;;;;5056665;28;20814;-70
2021/05/28 07:31:26;;;;;;;15.20;11.63;;;11.40;99.90;;;;;;5050969;28;20194;-70
2021/05/28 07:33:52;;;;;;;13.90;11.73;;;11.40;99.90;;;;;;5047884;28;20255;-69
2021/05/28 07:36:17;;;;;;;17.33;11.40;;;11.40;99.90;;;;;;5052326;28;20567;-69
2021/05/28 07:38:45;;;;;;;15.40;11.10;;;11.40;99.90;;;;;;5059409;28;20949;-70
2021/05/28 07:41:11;;;;;;;13.87;12.40;;;11.40;99.90;;;;;;5054011;28;20667;-70
2021/05/28 07:43:36;;;;;;;13.23;11.83;;;11.30;99.90;;;;;;5046470;28;20646;-68
2021/05/28 07:46:04;;;;;;;13.30;11.97;;;11.40;99.90;;;;;;5058546;28;20235;-70
2021/05/28 07:48:30;;;;;;;13.50;12.07;;;11.40;99.90;;;;;;5055620;28;20203;-68
2021/05/28 07:50:58;;;;;;;15.40;11.90;;;11.40;99.90;;;;;;5061387;28;20633;-71
2021/05/28 07:53:26;;;;;;;13.60;10.63;;;11.50;99.90;;;;;;5053954;28;20251;-69
2021/05/28 07:55:53;;;;;;;13.40;10.23;;;11.50;99.90;;;;;;5066515;28;21054;-69
2021/05/28 07:58:18;;;;;;;13.77;11.20;;;11.50;99.90;;;;;;5055172;28;21001;-69
2021/05/28 08:00:44;;;;;;;14.13;10.87;;;11.50;99.90;;;;;;5052115;28;20629;-68
2021/05/28 08:03:10;;;;;;;11.90;10.07;;;11.50;99.90;;;;;;5054967;28;20247;-70
2021/05/28 08:05:35;;;;;;;11.73;9.90;;;11.60;99.90;;;;;;5055251;28;20374;-70
2021/05/28 08:08:02;;;;;;;9.77;8.73;;;11.70;99.90;;;;;;5061429;28;20270;-69
2021/05/28 08:10:29;;;;;;;9.80;8.03;;;11.70;99.90;;;;;;5056456;28;20195;-70
2021/05/28 08:12:55;;;;;;;10.10;8.03;;;11.70;99.90;;;;;;5052388;28;20653;-70
2021/05/28 08:15:21;;;;;;;8.97;8.00;;;11.70;99.90;;;;;;5060104;28;21192;-70
2021/05/28 08:17:47;;;;;;;10.63;8.03;;;11.80;99.90;;;;;;5053108;28;20704;-70
2021/05/28 08:20:14;;;;;;;13.90;8.70;;;11.80;99.90;;;;;;5062384;28;20641;-68
2021/05/28 08:22:39;;;;;;;10.23;8.70;;;11.80;99.90;;;;;;5064924;28;21192;-68
2021/05/28 08:25:06;;;;;;;12.47;9.77;;;11.80;99.90;;;;;;5053684;28;20698;-68
2021/05/28 08:27:31;;;;;;;10.97;9.00;;;11.90;99.90;;;;;;5053387;28;20286;-69
2021/05/28 08:29:59;;;;;;;10.70;8.97;;;11.90;99.90;;;;;;5047722;28;20773;-67
2021/05/28 08:32:25;;;;;;;12.90;8.53;;;12.00;99.90;;;;;;5049351;28;20214;-67
2021/05/28 08:34:53;;;;;;;11.57;7.73;;;12.10;99.90;;;;;;5054197;28;20666;-67
2021/05/28 08:37:18;;;;;;;10.13;7.80;;;12.10;99.90;;;;;;5059781;28;20222;-69
2021/05/28 08:39:44;;;;;;;9.00;8.10;;;12.20;99.90;;;;;;5064829;28;20681;-69
2021/05/28 08:42:10;;;;;;;9.57;8.40;;;12.20;99.90;;;;;;5056628;28;20187;-69
2021/05/28 08:44:37;;;;;;;10.10;8.50;;;12.30;99.90;;;;;;5051936;28;20670;-68
2021/05/28 08:47:03;;;;;;;9.97;8.20;;;12.40;99.90;;;;;;5059248;28;20620;-69
2021/05/28 08:49:30;;;;;;;13.03;9.00;;;12.40;99.90;;;;;;5058621;28;20633;-69
2021/05/28 08:52:00;;;;;;;8.70;7.83;;;12.40;99.90;;;;;;5056664;28;20640;-69
2021/05/28 08:54:26;;;;;;;9.20;8.20;;;12.50;99.90;;;;;;5058777;28;21217;-68
2021/05/28 08:56:52;;;;;;;11.70;8.70;;;12.50;99.90;;;;;;5059811;28;20606;-68
2021/05/28 08:59:18;;;;;;;9.60;8.60;;;12.50;99.90;;;;;;5052159;28;20698;-69
2021/05/28 09:01:43;;;;;;;10.30;9.30;;;12.60;99.90;;;;;;5052729;28;20613;-69
2021/05/28 09:04:11;;;;;;;11.80;10.60;;;12.70;99.90;;;;;;5061553;28;20223;-69
2021/05/28 09:06:38;;;;;;;10.40;9.30;;;12.70;99.90;;;;;;5059157;28;20754;-67
2021/05/28 09:09:13;;;;;;;10.23;9.03;;;12.80;99.90;;;;;;5052290;28;20657;-68
2021/05/28 09:11:53;;;;;;;16.60;10.37;;;12.90;99.90;;;;;;5053807;28;20618;-69
2021/05/28 09:14:40;;;;;;;17.73;10.20;;;13.00;99.90;;;;;;5053663;28;20665;-69
2021/05/28 09:17:08;;;;;;;11.83;8.90;;;13.10;99.90;;;;;;5060413;28;20629;-69
2021/05/28 09:19:37;;;;;;;9.33;8.20;;;13.10;99.90;;;;;;5055259;28;20749;-67
2021/05/28 09:22:07;;;;;;;9.27;8.27;;;13.20;99.90;;;;;;5050967;28;21411;-68
2021/05/28 09:24:37;;;;;;;9.83;8.00;;;13.20;99.90;;;;;;5061572;28;20641;-68
2021/05/28 09:27:33;;;;;;;12.10;9.47;;;13.20;99.90;;;;;;5066388;28;20724;-69
2021/05/28 09:30:08;;;;;;;11.60;9.87;;;13.20;99.90;;;;;;5066074;28;20705;-68
2021/05/28 09:32:36;;;;;;;11.23;9.40;;;13.20;99.90;;;;;;5063406;28;20655;-69
2021/05/28 09:35:03;;;;;;;12.13;9.23;;;13.20;99.90;;;;;;5053788;28;20634;-66
2021/05/28 09:37:36;;;;;;;11.83;8.60;;;13.20;99.90;;;;;;5064452;28;20985;-68
2021/05/28 09:40:06;;;;;;;9.07;8.20;;;13.20;99.90;;;;;;5056931;28;20736;-69
2021/05/28 09:42:46;;;;;;;10.83;8.50;;;13.30;99.90;;;;;;5056532;28;20672;-69
2021/05/28 09:45:30;;;;;;;11.90;9.10;;;13.30;99.90;;;;;;5064560;28;20650;-69
2021/05/28 09:48:00;;;;;;;11.73;8.80;;;13.40;99.90;;;;;;5056759;28;20711;-67
2021/05/28 09:50:32;;;;;;;8.97;7.40;;;13.50;99.90;;;;;;5050303;28;21059;-69
2021/05/28 09:53:05;;;;;;;9.10;8.17;;;13.50;99.90;;;;;;5055356;28;20649;-69
2021/05/28 09:55:32;;;;;;;12.67;8.07;;;13.60;99.90;;;;;;5060313;28;21249;-69
2021/05/28 09:57:58;;;;;;;11.97;8.47;;;13.70;99.90;;;;;;5061950;28;20613;-70
2021/05/28 10:00:36;;;;;;;10.30;7.60;;;13.80;99.90;;;;;;5059724;28;20667;-69
2021/05/28 10:03:22;;;;;;;11.87;7.90;;;13.90;99.90;;;;;;5060505;28;20621;-69
2021/05/28 10:05:53;;;;;;;9.73;7.30;;;14.00;99.90;;;;;;5057323;28;20688;-69
2021/05/28 10:08:23;;;;;;;12.37;8.63;;;14.10;99.90;;;;;;5056281;28;20619;-67
2021/05/28 10:10:51;;;;;;;9.43;7.87;;;14.10;99.90;;;;;;5047392;28;20672;-69
2021/05/28 10:13:19;;;;;;;9.90;8.20;;;14.10;99.90;;;;;;5063284;28;20749;-69
2021/05/28 10:15:56;;;;;;;9.73;8.10;;;14.10;99.90;;;;;;5055813;28;20645;-69
2021/05/28 10:18:23;;;;;;;10.17;7.57;;;14.20;99.90;;;;;;5060802;28;20613;-69
2021/05/28 10:20:50;;;;;;;8.13;7.33;;;14.20;99.90;;;;;;5053930;28;20625;-69
2021/05/28 10:23:17;;;;;;;9.83;7.33;;;14.30;99.90;;;;;;5046110;28;20654;-68
2021/05/28 10:25:45;;;;;;;9.00;7.43;;;14.30;99.90;;;;;;5053934;28;20652;-68
2021/05/28 10:28:19;;;;;;;8.40;7.07;;;14.30;99.90;;;;;;5057503;28;20641;-69
2021/05/28 10:30:46;;;;;;;12.07;8.77;;;14.40;99.90;;;;;;5056614;28;20663;-69
2021/05/28 10:33:18;;;;;;;10.77;7.87;;;14.40;99.90;;;;;;5052737;28;20653;-70
2021/05/28 10:35:49;;;;;;;9.20;7.23;;;14.50;99.90;;;;;;5060920;28;20731;-69
2021/05/28 10:38:30;;;;;;;8.70;7.20;;;14.50;99.90;;;;;;5062028;28;20676;-70
2021/05/28 10:41:04;;;;;;;7.97;7.10;;;14.50;99.90;;;;;;5054593;28;20678;-70
2021/05/28 10:43:34;;;;;;;11.40;7.80;;;14.60;99.90;;;;;;5059382;28;20761;-69
2021/05/28 10:46:06;;;;;;;10.20;7.80;;;14.60;99.90;;;;;;5049850;28;20712;-69
2021/05/28 10:48:38;;;;;;;8.87;7.53;;;14.70;99.90;;;;;;5052178;28;20750;-68
2021/05/28 10:51:25;;;;;;;11.77;8.00;;;14.80;99.90;;;;;;5059491;28;20617;-70
2021/05/28 10:53:51;;;;;;;10.40;7.70;;;14.80;99.90;;;;;;5047220;28;20661;-68
2021/05/28 10:56:19;;;;;;;12.33;7.83;;;14.80;99.90;;;;;;5062240;28;20622;-70
2021/05/28 10:58:53;;;;;;;12.20;8.30;;;14.90;99.90;;;;;;5064079;28;20216;-68
2021/05/28 11:01:47;;;;;;;8.07;7.27;;;14.90;99.90;;;;;;5057734;28;21016;-69
2021/05/28 11:04:16;;;;;;;13.67;8.40;;;15.00;99.90;;;;;;5058932;28;20654;-68
2021/05/28 11:06:59;;;;;;;11.97;8.50;;;15.10;99.90;;;;;;5057607;28;20649;-69
2021/05/28 11:09:38;;;;;;;9.27;7.60;;;15.20;99.90;;;;;;5044807;28;20724;-71
2021/05/28 11:12:09;;;;;;;11.83;9.13;;;15.20;99.90;;;;;;5056119;28;20800;-70
2021/05/28 11:14:36;;;;;;;11.10;7.40;;;15.30;99.90;;;;;;5047986;28;21247;-70
2021/05/28 11:17:05;;;;;;;10.33;7.73;;;15.40;99.90;;;;;;5041043;28;21140;-71
2021/05/28 11:19:34;;;;;;;9.30;7.77;;;15.40;99.90;;;;;;5043686;28;20645;-70
2021/05/28 11:22:05;;;;;;;10.50;7.13;;;15.50;99.90;;;;;;5051703;28;21083;-69
2021/05/28 11:24:47;;;;;;;9.60;7.90;;;15.50;99.90;;;;;;5060203;28;20662;-69
2021/05/28 11:27:40;;;;;;;9.83;7.67;;;15.50;99.90;;;;;;5059474;28;20614;-69
2021/05/28 11:30:05;;;;;;;9.53;7.67;;;15.60;99.90;;;;;;5046859;28;20661;-69
2021/05/28 11:32:31;;;;;;;13.63;8.60;;;15.60;99.90;;;;;;5034426;28;20646;-69
2021/05/28 11:35:17;;;;;;;13.70;7.83;;;15.70;99.90;;;;;;5048740;28;20211;-69
2021/05/28 11:38:04;;;;;;;9.83;7.70;;;15.70;99.90;;;;;;5047124;28;20317;-68
2021/05/28 11:40:37;;;;;;;10.27;7.10;;;15.70;99.90;;;;;;5049502;28;20609;-69
2021/05/28 11:43:14;;;;;;;10.20;7.23;;;15.70;99.90;;;;;;5048060;28;20630;-70
2021/05/28 11:45:47;;;;;;;8.37;7.43;;;15.70;99.90;;;;;;5048532;28;21223;-69
2021/05/28 11:48:15;;;;;;;9.10;7.87;;;15.60;99.90;;;;;;5049668;28;20605;-69
2021/05/28 11:50:53;;;;;;;11.03;7.10;;;15.60;99.90;;;;;;5044857;28;20620;-70
2021/05/28 11:55:47;;;;;;;9.57;6.70;;;15.70;99.90;;;;;;4988089;28;20700;-81
2021/05/28 11:58:14;;;;;;;11.17;7.53;;;15.70;99.90;;;;;;5006269;28;20634;-79
2021/05/28 12:00:41;;;;;;;7.80;6.77;;;15.70;99.90;;;;;;5008194;28;21115;-78
2021/05/28 12:03:07;;;;;;;9.47;7.30;;;15.80;99.90;;;;;;4999700;28;21292;-79
2021/05/28 12:05:47;;;;;;;10.53;7.00;;;15.90;99.90;;;;;;4993870;28;20639;-79
2021/05/28 12:08:22;;;;;;;7.03;5.90;;;15.80;99.90;;;;;;5002977;28;20619;-77
2021/05/28 12:10:53;;;;;;;9.87;6.73;;;15.90;99.90;;;;;;5008884;28;20640;-78
2021/05/28 12:13:26;;;;;;;7.97;6.23;;;15.90;99.90;;;;;;4999376;28;20659;-77
2021/05/28 12:16:01;;;;;;;7.80;6.43;;;15.90;99.90;;;;;;5000590;28;20714;-77
2021/05/28 12:18:29;;;;;;;7.83;6.70;;;15.90;99.90;;;;;;4998412;28;22436;-74
2021/05/28 12:21:05;;;;;;;8.27;7.33;;;15.90;99.90;;;;;;5009346;28;20704;-73
2021/05/28 12:23:36;;;;;;;10.17;7.27;;;15.90;99.90;;;;;;4997857;28;20713;-77
2021/05/28 12:26:08;;;;;;;8.90;6.83;;;15.90;99.90;;;;;;4997380;28;20624;-78
2021/05/28 12:28:35;;;;;;;8.97;6.70;;;16.00;99.90;;;;;;4998760;28;21275;-77
2021/05/28 12:31:13;;;;;;;8.20;6.70;;;16.00;99.90;;;;;;5002382;28;20642;-77
2021/05/28 12:33:50;;;;;;;8.30;6.13;;;16.00;99.90;;;;;;5013673;28;20678;-76
2021/05/28 12:36:16;;;;;;;9.60;6.00;;;15.90;99.90;;;;;;5014159;28;20685;-76
2021/05/28 12:38:45;;;;;;;10.03;5.90;;;16.00;99.90;;;;;;5009025;28;20724;-78
2021/05/28 12:41:29;;;;;;;8.20;7.03;;;16.00;99.90;;;;;;5001397;28;20751;-78
2021/05/28 12:43:56;;;;;;;7.00;6.20;;;16.10;99.90;;;;;;4984518;28;20656;-77
2021/05/28 12:46:27;;;;;;;7.20;5.83;;;16.10;99.90;;;;;;4992795;28;20641;-77
2021/05/28 12:49:09;;;;;;;10.70;6.40;;;16.10;99.90;;;;;;5005960;28;21258;-77